Smithwick, South Dakota
Current Conditions -  °F | °C
As of 10:53 AM on Thursday 30 Oct 2014 (Local Time) from KCDR Reporting Station
Clear Clear  
Wind Chill: 56°   Ceiling: Unl
Heat Index: 56°   Visibility: 10mi
Dew Point: 33°   Wind: 12mph
Humidity: 42%   Direction: 300°WNW
Pressure: 30.31"   Gusts: NA
Location:  43.3°N, 103.22°W
Report Text: KCDR 301653Z AUTO 30010KT 10SM CLR 13/01 A3031 RMK AO2 SLP275 T01330006
Loading
Personal Weather Stations






























Interactive Weather Map
Tropical Storm Tracking
New forecast layout! Learn more

10-Day Weather Forecast

Advertisements
Track Severe Weather on mobile